• Join FlightAware (Why Join?)
  • Login
  • US Flag 
02:11AM EDT


 

Airport Tracker/Info


-or-


 

Live Flight TrackerFlight Track Log ✈ N100PM ✈ 29-Oct-2013 ✈ KAPF - KIMM

Flight Track Log - Related Links

Times and Time Zones

All times are in EDT time to prevent confusion due to time zone crossing. See the N100PM flight status page for this flight to view local times or setup timezone preferences in your user account.

Time Position Orientation Groundspeed Altitude Reporting Facility
EDT Latitude Longitude Course Direction KTS MPH feet Rate Location/Type
10:53AM 26.1790 -81.7374 52° Northeast  Level FlightAware Approximate
10:54AM 26.1835 -81.7311 52° Northeast  Level FlightAware Approximate
10:55AM 26.1881 -81.7249 51° Northeast  Level Estimated
10:56AM 26.1927 -81.7187 51° Northeast  Level FlightAware Approximate
10:57AM 26.1972 -81.7124 51° Northeast  Level FlightAware Approximate
10:58AM 26.2017 -81.7061 51° Northeast  Level FlightAware Approximate
10:59AM 26.2063 -81.6998 51° Northeast  Level FlightAware Approximate
11:00AM 26.2108 -81.6935 51° Northeast  Level FlightAware Approximate
11:01AM 26.2153 -81.6873 51° Northeast  Level FlightAware Approximate
11:02AM 26.2199 -81.6810 51° Northeast  Level FlightAware Approximate
11:03AM 26.2244 -81.6747 51° Northeast  Level FlightAware Approximate
11:04AM 26.2289 -81.6684 51° Northeast  Level FlightAware Approximate
11:05AM 26.2334 -81.6621 51° Northeast  Level FlightAware Approximate
11:06AM 26.2380 -81.6559 51° Northeast  Level FlightAware Approximate
11:07AM 26.2425 -81.6496 51° Northeast  Level FlightAware Approximate
11:08AM 26.2470 -81.6433 51° Northeast  Level FlightAware Approximate
11:09AM 26.2515 -81.6370 51° Northeast  Level FlightAware Approximate
11:10AM 26.2561 -81.6307 51° Northeast  Level FlightAware Approximate
11:11AM 26.2606 -81.6244 51° Northeast  Level FlightAware Approximate
11:12AM 26.2651 -81.6181 51° Northeast  Level FlightAware Approximate
11:13AM 26.2696 -81.6118 51° Northeast  Level FlightAware Approximate
11:14AM 26.2741 -81.6055 51° Northeast  Level FlightAware Approximate
11:15AM 26.2787 -81.5993 51° Northeast  Level FlightAware Approximate
11:16AM 26.2832 -81.5930 51° Northeast  Level FlightAware Approximate
11:17AM 26.2877 -81.5867 51° Northeast  Level FlightAware Approximate
11:18AM 26.2922 -81.5804 51° Northeast  Level FlightAware Approximate
11:19AM 26.2967 -81.5741 51° Northeast  Level FlightAware Approximate
11:20AM 26.3013 -81.5678 51° Northeast  Level FlightAware Approximate
11:21AM 26.3058 -81.5615 51° Northeast  Level FlightAware Approximate
11:22AM 26.3103 -81.5552 51° Northeast  Level FlightAware Approximate
11:23AM 26.3148 -81.5489 51° Northeast  Level FlightAware Approximate
11:24AM 26.3193 -81.5426 51° Northeast  Level FlightAware Approximate
11:25AM 26.3242 -81.5367 61° Northeast  Level Estimated
11:26AM 26.3282 -81.5300 56° Northeast  Level FlightAware Approximate
11:27AM 26.3323 -81.5233 56° Northeast  Level FlightAware Approximate
11:28AM 26.3363 -81.5166 56° Northeast  Level FlightAware Approximate
11:29AM 26.3413 -81.5108 42° Northeast  Level Estimated
11:30AM 26.3462 -81.5049 47° Northeast  Level FlightAware Approximate
11:31AM 26.3512 -81.4989 47° Northeast  Level FlightAware Approximate
11:32AM 26.3561 -81.4930 47° Northeast  Level FlightAware Approximate
11:33AM 26.3610 -81.4871 47° Northeast  Level FlightAware Approximate
11:34AM 26.3659 -81.4812 47° Northeast  Level FlightAware Approximate
11:35AM 26.3708 -81.4753 47° Northeast  Level FlightAware Approximate
11:36AM 26.3757 -81.4694 47° Northeast  Level FlightAware Approximate
11:37AM 26.3807 -81.4634 47° Northeast  Level FlightAware Approximate
11:38AM 26.3856 -81.4575 47° Northeast  Level FlightAware Approximate
11:39AM 26.3905 -81.4516 47° Northeast  Level FlightAware Approximate
11:40AM 26.3954 -81.4457 47° Northeast  Level FlightAware Approximate
11:41AM 26.4003 -81.4398 47° Northeast  Level FlightAware Approximate
11:42AM 26.4054 -81.4340 42° Northeast  Level Estimated
11:43AM 26.4104 -81.4282 42° Northeast  Level Estimated
11:44AM 26.4154 -81.4224 42° Northeast  Level Estimated
11:45AM 26.4205 -81.4166 42° Northeast  Level Estimated
11:46AM 26.4255 -81.4109 42° Northeast  Level Estimated
11:47AM 26.4333 -81.4000 42° Northeast  Level FlightAware Approximate
11:48AM 26.4338 -81.4014 42° Northeast  Level Estimated
11:49AM 26.4333 -81.4000 42° Northeast  Level FlightAware Approximate
11:50AM 26.4338 -81.4014 42° Northeast  Level Estimated
11:51AM 26.4333 -81.4000 42° Northeast  Level FlightAware Approximate
11:52AM 26.4338 -81.4014 42° Northeast  Level Estimated
11:53AM 26.4333 -81.4000 42° Northeast  Level FlightAware Approximate
11:54AM 26.4338 -81.4014 42° Northeast  Level Estimated
11:55AM 26.4333 -81.4000 42° Northeast  Level FlightAware Approximate
11:56AM 26.4338 -81.4014 42° Northeast  Level Estimated
11:57AM 26.4333 -81.4000 42° Northeast  Level FlightAware Approximate
11:58AM 26.4338 -81.4014 42° Northeast  Level Estimated
11:59AM 26.4333 -81.4000 42° Northeast  Level FlightAware Approximate
12:00PM 26.4338 -81.4014 42° Northeast  Level Estimated
12:01PM 26.4333 -81.4000 42° Northeast  Level FlightAware Approximate
12:02PM 26.4338 -81.4014 42° Northeast  Level Estimated
12:03PM 26.4333 -81.4000 42° Northeast  Level FlightAware Approximate